map of YFB home
YFB - Airport
Location
City:  Iqaluit, Nunavut, Canada
Name:Iqaluit Airport
Old (Alt.):Frobisher Bay
ICAO:CYFB
IATA:YFB

Details
Type:Airport (Airfield)
Use:Public/Civil
Latitude:6345'24"N (63.756667)
Longitude:6833'22"W (-68.556110)
Elevation:110 ft (34 m)
Variation:27.86W (WMM2015 magnetic declination)
0.39 annual change
Runways:1
Longest:8605 ft (2623 m), paved

Time
Time Zone:UTC-5 (DST-4)
Local Time:

Weather
METAR:CYFB 210200Z 33017KT 15SM DRSN FEW023 M21/M24 A3006 RMK SC1 SLP184
TAF:CYFB 202338Z 2100/2124 33015G25KT P6SM BKN025
TEMPO 2100/2108 4SM IC BLSN BKN020
FM210800 33012KT P6SM FEW030
TEMPO 2108/2115 5SM IC
RMK NXT FCST BY 210600Z

Related Locations
Nearby:
Farthest:YWKS: 12227 mi / 19677 km
Wilkins Runway (Casey), Upper Peterson Glacier, AQ

Find:

   beyond  
but within

Other Information
Maps:
NOTAMs:
Links:
Sources:

  
flag of Canada
flag of Nunavut
  

Airport Diagram

Airport diagram for YFB

Airport diagram PDF

Sectional Chart

Flight Planning
at skyvector.com

Satellite Image

Google Maps Satellite view

 

Copyright © 2004-2017 Karl L. Swartz. All rights reserved.
The Great Circle Mapper name and logo are trademarks of the Great Circle Mapper.
All other trademarks mentioned herein belong to their respective owners.
Please see credits for attibutions and further copyright information.

  Follow gcmap on Facebook Follow gcmap on Twitter Follow gcmap on Google+ GCmap on LinkedIn

hCard Microformat

Geo Microformat